Terminal Aerodrome Forecast
Issued by NWS Wilmington, OH

Current Version | Previous Version | Text Only | Print | Product List | Glossary Off
Versions: 1 2 3 4 5 6 7 8 9 10 11 12 13 14 15 16 17 18 19 20 21 22 23 24 25

000
FTUS41 KILN 271800 AAA
TAFDAY
TAF AMD
KDAY 271801Z 2718/2818 20014KT P6SM BKN015 BKN025
     FM272100 21009KT 4SM BR VCSH SCT010 OVC015
      TEMPO 2721/2724 2SM -SHRA BR BKN007 OVC010
     FM280000 25009KT 5SM BR VCSH BKN010
     FM280400 24007KT 4SM -SHRA BR BKN005
     FM281100 31007KT 3SM -SHRA BR OVC007
     FM281600 32007KT 5SM BR OVC009=

USA.gov is the U.S. government's official web portal to all federal, state and local government web resources and services.